createdAt,value
2023-02-20T00:00:26.774Z,99053.03
2023-02-20T00:03:31.162Z,99052.25
2023-02-20T00:06:35.643Z,99054.78
2023-02-20T00:09:38.828Z,99059.03
2023-02-20T00:12:42.281Z,99046.28
2023-02-20T00:15:45.440Z,99048.84
2023-02-20T00:18:48.575Z,99061.66
2023-02-20T00:21:54.565Z,99056.47
2023-02-20T00:24:58.071Z,99062.50
2023-02-20T00:28:01.233Z,99062.47
2023-02-20T00:31:04.398Z,99051.31
2023-02-20T00:34:07.561Z,99049.53
2023-02-20T00:37:12.246Z,99046.13
2023-02-20T00:40:16.266Z,99062.41
2023-02-20T00:43:19.412Z,99056.41
2023-02-20T00:46:22.548Z,99063.28
2023-02-20T00:49:25.853Z,99061.63
2023-02-20T00:52:30.528Z,99060.69
2023-02-20T00:55:33.637Z,99062.50
2023-02-20T00:58:37.690Z,99041.13
2023-02-20T01:01:42.098Z,99021.63
2023-02-20T01:04:45.320Z,99039.44
2023-02-20T01:07:49.803Z,99049.69
2023-02-20T01:10:53.195Z,99049.69
2023-02-20T01:13:56.322Z,99051.44
2023-02-20T01:16:59.532Z,99053.13
2023-02-20T01:20:04.419Z,99040.31
2023-02-20T01:23:10.558Z,99042.88
2023-02-20T01:26:14.161Z,99054.94
2023-02-20T01:29:18.420Z,99064.38
2023-02-20T01:32:21.570Z,99063.56
2023-02-20T01:35:24.720Z,99056.69
2023-02-20T01:38:29.303Z,99050.75
2023-02-20T01:41:32.515Z,99043.06
2023-02-20T01:44:39.424Z,99042.22
2023-02-20T01:47:42.495Z,99043.16
2023-02-20T01:50:46.284Z,99053.41
2023-02-20T01:53:50.900Z,99042.25
2023-02-20T01:56:58.032Z,99043.97
2023-02-20T02:00:06.313Z,99033.72
2023-02-20T02:03:21.741Z,99030.41
2023-02-20T02:06:25.960Z,99025.25
2023-02-20T02:09:40.921Z,99020.28
2023-02-20T02:12:48.698Z,99017.94
2023-02-20T02:15:53.838Z,99026.44
2023-02-20T02:19:07.139Z,99027.25
2023-02-20T02:22:41.414Z,99027.25
2023-02-20T02:25:56.160Z,99028.09
2023-02-20T02:29:39.338Z,99028.94
2023-02-20T02:33:03.419Z,99022.78
2023-02-20T02:36:49.010Z,99021.97
2023-02-20T02:40:02.720Z,99030.59
2023-02-20T02:43:10.770Z,99022.06
2023-02-20T02:46:17.173Z,99018.66
2023-02-20T02:49:27.201Z,99016.22
2023-02-20T02:52:46.726Z,98998.34
2023-02-20T02:55:51.278Z,98993.28
2023-02-20T02:58:55.877Z,98988.13
2023-02-20T03:02:05.006Z,98985.59
2023-02-20T03:05:12.057Z,98992.41
2023-02-20T03:08:30.696Z,98998.38
2023-02-20T03:11:37.126Z,98987.16
2023-02-20T03:15:05.222Z,98988.13
2023-02-20T03:18:18.067Z,98993.38
2023-02-20T03:21:25.376Z,98994.16
2023-02-20T03:24:31.164Z,98997.63
2023-02-20T03:27:42.860Z,99001.00
2023-02-20T03:30:53.077Z,99013.91
2023-02-20T03:34:18.678Z,99021.63
2023-02-20T03:37:41.242Z,99017.41
2023-02-20T03:41:02.282Z,99011.47
2023-02-20T03:44:08.607Z,99007.22
2023-02-20T03:47:16.744Z,99018.31
2023-02-20T03:50:20.798Z,99009.66
2023-02-20T03:53:25.068Z,99013.09
2023-02-20T03:56:32.540Z,99013.06
2023-02-20T03:59:43.146Z,99012.09
2023-02-20T04:02:50.465Z,98989.13
2023-02-20T04:05:58.410Z,99010.31
2023-02-20T04:09:12.398Z,99009.38
2023-02-20T04:12:23.423Z,98998.22
2023-02-20T04:15:29.847Z,99011.03
2023-02-20T04:18:33.412Z,99003.19
2023-02-20T04:21:43.111Z,99000.56
2023-02-20T04:24:53.281Z,99010.75
2023-02-20T04:27:57.004Z,99006.53
2023-02-20T04:34:47.671Z,99005.78
2023-02-20T04:37:51.739Z,99000.69
2023-02-20T04:40:58.696Z,98991.31
2023-02-20T04:44:19.349Z,98981.84
2023-02-20T04:47:25.792Z,98975.91
2023-02-20T04:50:33.820Z,98967.50
2023-02-20T04:53:38.430Z,98998.34
2023-02-20T04:56:42.000Z,98990.53
2023-02-20T04:59:48.335Z,98995.59
2023-02-20T05:02:51.437Z,98998.16
2023-02-20T05:05:55.942Z,98989.63
2023-02-20T05:08:59.113Z,98988.00
2023-02-20T05:12:02.232Z,99002.53
2023-02-20T05:15:05.627Z,99000.78
2023-02-20T05:18:08.810Z,99004.25
2023-02-20T05:21:33.681Z,99001.72
2023-02-20T05:24:36.792Z,99004.34
2023-02-20T05:27:40.013Z,99009.47
2023-02-20T05:30:43.374Z,99019.78
2023-02-20T05:33:46.562Z,99012.94
2023-02-20T05:36:51.379Z,99019.84
2023-02-20T05:39:55.242Z,98996.06
2023-02-20T05:42:58.390Z,99028.66
2023-02-20T05:46:01.556Z,99031.34
2023-02-20T05:49:06.473Z,99037.44
2023-02-20T05:52:13.171Z,99043.50
2023-02-20T05:55:18.550Z,99056.38
2023-02-20T05:58:21.680Z,99044.38
2023-02-20T06:01:26.640Z,99049.50
2023-02-20T06:04:30.649Z,99054.63
2023-02-20T06:07:35.645Z,99056.38
2023-02-20T06:10:38.898Z,99058.09
2023-02-20T06:13:45.203Z,99047.84
2023-02-20T06:16:48.757Z,99051.22
2023-02-20T06:19:52.053Z,99052.16
2023-02-20T06:22:57.474Z,99047.81
2023-02-20T06:26:00.760Z,99039.41
2023-02-20T06:29:05.742Z,99049.50
2023-02-20T06:32:08.997Z,99053.00
2023-02-20T06:35:12.486Z,99052.06
2023-02-20T06:38:17.029Z,99053.81
2023-02-20T06:41:20.461Z,99064.09
2023-02-20T06:44:23.863Z,99069.19
2023-02-20T06:47:26.965Z,99064.03
2023-02-20T06:50:30.191Z,99068.25
2023-02-20T06:53:38.100Z,99064.75
2023-02-20T06:56:41.498Z,99062.97
2023-02-20T06:59:47.793Z,99060.38
2023-02-20T07:02:51.116Z,99044.19
2023-02-20T07:05:54.252Z,99065.41
2023-02-20T07:08:58.889Z,99061.91
2023-02-20T07:12:01.999Z,99060.16
2023-02-20T07:15:06.127Z,99064.47
2023-02-20T07:18:09.369Z,99026.97
2023-02-20T07:21:12.796Z,99055.13
2023-02-20T07:24:17.749Z,99060.09
2023-02-20T07:27:21.530Z,99038.69
2023-02-20T07:30:25.190Z,99034.28
2023-02-20T07:33:28.527Z,99047.06
2023-02-20T07:36:31.765Z,99044.56
2023-02-20T07:39:36.272Z,99054.00
2023-02-20T07:42:39.349Z,99046.25
2023-02-20T07:46:02.972Z,99041.91
2023-02-20T07:49:06.818Z,99045.06
2023-02-20T07:52:10.024Z,99040.81
2023-02-20T07:55:16.726Z,99044.75
2023-02-20T07:58:19.966Z,99039.94
2023-02-20T08:01:23.144Z,99023.97
2023-02-20T08:04:27.306Z,99033.22
2023-02-20T08:07:30.803Z,99009.09
2023-02-20T08:10:35.585Z,98994.19
2023-02-20T08:13:38.759Z,98997.81
2023-02-20T08:16:41.941Z,99010.06
2023-02-20T08:19:45.149Z,98997.13
2023-02-20T08:22:50.078Z,98989.88
2023-02-20T08:25:54.906Z,98978.38
2023-02-20T08:28:58.077Z,99000.34
2023-02-20T08:32:01.288Z,99006.03
2023-02-20T08:35:04.971Z,99007.22
2023-02-20T08:38:23.827Z,98999.63
2023-02-20T08:41:28.497Z,98987.84
2023-02-20T08:44:31.759Z,98977.75
2023-02-20T08:47:35.226Z,98993.53
2023-02-20T08:50:38.418Z,98981.09
2023-02-20T08:53:41.566Z,98973.97
2023-02-20T08:56:46.022Z,98964.81
2023-02-20T08:59:49.183Z,98960.28
2023-02-20T09:02:52.546Z,98954.84
2023-02-20T09:05:55.757Z,98954.84
2023-02-20T09:08:58.874Z,98959.06
2023-02-20T09:12:03.735Z,98954.31
2023-02-20T09:15:07.434Z,98954.38
2023-02-20T09:18:14.068Z,98950.94
2023-02-20T09:21:19.662Z,98946.84
2023-02-20T09:24:22.918Z,98947.25
2023-02-20T09:27:27.390Z,98940.22
2023-02-20T09:30:30.638Z,98936.94
2023-02-20T09:33:33.958Z,98932.06
2023-02-20T09:36:37.068Z,98939.84
2023-02-20T09:39:40.256Z,98931.34
2023-02-20T09:42:54.351Z,98929.88
2023-02-20T09:46:05.008Z,98914.63
2023-02-20T09:49:16.003Z,98917.38
2023-02-20T09:52:19.370Z,98912.13
2023-02-20T09:55:24.561Z,98906.03
2023-02-20T09:58:38.280Z,98876.50
2023-02-20T10:01:50.942Z,98886.13
2023-02-20T10:05:02.312Z,98890.34
2023-02-20T10:08:10.702Z,98873.41
2023-02-20T10:11:21.366Z,98886.41
2023-02-20T10:14:39.079Z,98880.78
2023-02-20T10:17:55.042Z,98878.75
2023-02-20T10:21:12.485Z,98869.81
2023-02-20T10:24:36.415Z,98877.28
2023-02-20T10:27:55.682Z,98864.34
2023-02-20T10:34:38.766Z,98860.63
2023-02-20T10:37:52.821Z,98869.97
2023-02-20T10:48:18.329Z,98858.91
2023-02-20T10:51:31.426Z,98849.09
2023-02-20T10:54:38.462Z,98769.88
2023-02-20T10:57:47.255Z,98810.50
2023-02-20T11:03:24.159Z,98817.41
2023-02-20T11:06:38.116Z,98820.06
2023-02-20T11:09:46.632Z,98783.97
2023-02-20T11:13:00.252Z,98807.06
2023-02-20T11:18:26.193Z,98797.91
2023-02-20T11:21:37.466Z,98799.19
2023-02-20T11:24:46.395Z,98787.88
2023-02-20T11:27:52.536Z,98772.16
2023-02-20T11:31:03.547Z,98771.59
2023-02-20T11:34:19.609Z,98767.22
2023-02-20T11:37:27.947Z,98755.78
2023-02-20T11:40:36.321Z,98754.69
2023-02-20T11:43:49.705Z,98756.16
2023-02-20T11:48:20.574Z,98708.56
2023-02-20T11:51:33.709Z,98737.06
2023-02-20T11:54:37.070Z,98739.47
2023-02-20T11:57:46.638Z,98722.63
2023-02-20T12:03:24.190Z,98725.59
2023-02-20T12:06:43.130Z,98734.69
2023-02-20T12:09:51.109Z,98724.94
2023-02-20T12:12:55.229Z,98718.19
2023-02-20T12:18:41.748Z,98694.38
2023-02-20T12:21:57.308Z,98690.47
2023-02-20T12:25:25.335Z,98683.03
2023-02-20T12:28:37.269Z,98674.00
2023-02-20T12:33:40.451Z,98677.97
2023-02-20T12:36:52.298Z,98675.03
2023-02-20T12:40:06.484Z,98673.78
2023-02-20T12:43:22.679Z,98659.19
2023-02-20T12:48:30.036Z,98618.75
2023-02-20T12:51:39.572Z,98646.44
2023-02-20T12:54:54.173Z,98640.81
2023-02-20T12:58:08.502Z,98639.56
2023-02-20T13:03:21.701Z,98629.44
2023-02-20T13:06:36.122Z,98637.81
2023-02-20T13:09:45.301Z,98611.50
2023-02-20T13:12:49.935Z,98623.13
2023-02-20T13:18:26.422Z,98639.41
2023-02-20T13:21:32.619Z,98603.78
2023-02-20T13:24:37.111Z,98640.53
2023-02-20T13:27:40.360Z,98622.34
2023-02-20T13:30:43.929Z,98620.09
2023-02-20T13:33:50.154Z,98532.19
2023-02-20T13:36:53.419Z,98608.00
2023-02-20T13:39:56.564Z,98611.28
2023-02-20T13:43:26.847Z,98585.91
2023-02-20T13:46:32.383Z,98543.28
2023-02-20T13:49:59.866Z,98607.72
2023-02-20T13:53:07.050Z,98598.66
2023-02-20T13:56:16.289Z,98586.94
2023-02-20T13:59:21.449Z,98587.31
2023-02-20T14:02:30.136Z,98571.97
2023-02-20T14:05:34.595Z,98568.03
2023-02-20T14:08:41.632Z,98565.38
2023-02-20T14:11:45.593Z,98565.72
2023-02-20T14:14:48.846Z,98557.38
2023-02-20T14:17:53.717Z,98550.44
2023-02-20T14:21:06.074Z,98538.81
2023-02-20T14:24:18.787Z,98541.59
2023-02-20T14:27:29.262Z,98543.53
2023-02-20T14:30:33.927Z,98530.00
2023-02-20T14:33:37.296Z,98540.75
2023-02-20T14:36:52.262Z,98539.38
2023-02-20T14:40:02.842Z,98537.59
2023-02-20T14:43:15.248Z,98524.97
2023-02-20T14:46:24.165Z,98509.94
2023-02-20T14:49:30.889Z,98497.34
2023-02-20T14:52:35.442Z,98528.72
2023-02-20T14:55:38.883Z,98534.59
2023-02-20T14:58:42.248Z,98523.59
2023-02-20T15:01:46.184Z,98528.00
2023-02-20T15:04:51.086Z,98523.78
2023-02-20T15:08:02.696Z,98512.81
2023-02-20T15:11:11.314Z,98512.75
2023-02-20T15:14:20.528Z,98509.44
2023-02-20T15:17:27.369Z,98505.16
2023-02-20T15:20:38.340Z,98491.75
2023-02-20T15:23:45.096Z,98472.94
2023-02-20T15:26:48.170Z,98484.81
2023-02-20T15:30:10.413Z,98492.81
2023-02-20T15:33:13.691Z,98497.50
2023-02-20T15:36:20.521Z,98495.03
2023-02-20T15:39:25.571Z,98486.56
2023-02-20T15:42:28.664Z,98478.19
2023-02-20T15:48:17.401Z,98459.84
2023-02-20T15:51:23.108Z,98478.69
2023-02-20T15:54:26.887Z,98483.72
2023-02-20T15:57:30.065Z,98480.50
2023-02-20T16:03:18.553Z,98471.16
2023-02-20T16:06:22.879Z,98466.09
2023-02-20T16:09:26.216Z,98466.66
2023-02-20T16:12:33.207Z,98468.06
2023-02-20T16:18:17.483Z,98471.47
2023-02-20T16:21:21.996Z,98451.38
2023-02-20T16:24:25.323Z,98458.50
2023-02-20T16:27:30.419Z,98465.16
2023-02-20T16:34:35.246Z,98463.56
2023-02-20T16:37:38.394Z,98464.59
2023-02-20T16:40:41.922Z,98451.06
2023-02-20T16:43:45.149Z,98464.78
2023-02-20T16:48:18.750Z,98453.19
2023-02-20T16:51:24.288Z,98441.50
2023-02-20T16:54:27.588Z,98459.25
2023-02-20T16:57:30.879Z,98449.75
2023-02-20T17:03:27.678Z,98452.44
2023-02-20T17:06:31.012Z,98457.19
2023-02-20T17:09:42.943Z,98467.81
2023-02-20T17:12:47.149Z,98464.31
2023-02-20T17:15:50.316Z,98472.16
2023-02-20T17:18:54.846Z,98468.41
2023-02-20T17:21:58.155Z,98474.06
2023-02-20T17:25:01.418Z,98467.94
2023-02-20T17:28:06.455Z,98440.94
2023-02-20T17:31:09.655Z,98471.31
2023-02-20T17:34:14.257Z,98467.00
2023-02-20T17:37:17.537Z,98481.25
2023-02-20T17:40:21.236Z,98451.28
2023-02-20T17:43:24.333Z,98484.06
2023-02-20T17:46:27.476Z,98486.84
2023-02-20T17:49:32.001Z,98488.59
2023-02-20T17:52:35.497Z,98488.41
2023-02-20T17:55:38.602Z,98486.00
2023-02-20T17:58:43.215Z,98479.34
2023-02-20T18:01:46.550Z,98478.91
2023-02-20T18:04:51.126Z,98479.69
2023-02-20T18:07:54.331Z,98475.75
2023-02-20T18:10:57.431Z,98482.09
2023-02-20T18:14:00.902Z,98485.28
2023-02-20T18:17:04.034Z,98489.84
2023-02-20T18:20:09.272Z,98485.41
2023-02-20T18:23:12.663Z,98486.81
2023-02-20T18:26:16.380Z,98480.69
2023-02-20T18:29:20.823Z,98476.41
2023-02-20T18:32:24.062Z,98482.19
2023-02-20T18:35:28.770Z,98481.47
2023-02-20T18:38:32.060Z,98474.31
2023-02-20T18:41:35.193Z,98458.69
2023-02-20T18:44:38.321Z,98475.03
2023-02-20T18:47:41.667Z,98477.13
2023-02-20T18:50:46.523Z,98439.84
2023-02-20T18:53:49.704Z,98483.50
2023-02-20T18:56:52.956Z,98477.47
2023-02-20T18:59:56.115Z,98476.22
2023-02-20T19:03:00.976Z,98474.81
2023-02-20T19:06:06.663Z,98470.84
2023-02-20T19:09:10.130Z,98474.28
2023-02-20T19:12:13.328Z,98470.66
2023-02-20T19:15:17.392Z,98468.41
2023-02-20T19:18:21.170Z,98462.66
2023-02-20T19:21:25.733Z,98472.81
2023-02-20T19:24:29.136Z,98462.81
2023-02-20T19:27:32.238Z,98463.47
2023-02-20T19:30:35.428Z,98466.16
2023-02-20T19:33:38.739Z,98465.03
2023-02-20T19:36:43.678Z,98475.50
2023-02-20T19:39:47.101Z,98471.97
2023-02-20T19:42:50.310Z,98478.81
2023-02-20T19:45:53.521Z,98473.25
2023-02-20T19:48:57.866Z,98471.38
2023-02-20T19:52:02.625Z,98477.69
2023-02-20T19:55:06.148Z,98472.41
2023-02-20T19:58:09.306Z,98482.03
2023-02-20T20:01:14.828Z,98478.63
2023-02-20T20:04:18.320Z,98488.09
2023-02-20T20:07:22.806Z,98493.84
2023-02-20T20:10:28.759Z,98502.72
2023-02-20T20:13:32.174Z,98493.63
2023-02-20T20:16:37.681Z,98496.81
2023-02-20T20:19:53.136Z,98496.66
2023-02-20T20:23:05.580Z,98488.47
2023-02-20T20:26:08.759Z,98498.09
2023-02-20T20:29:14.425Z,98493.78
2023-02-20T20:32:18.499Z,98494.75
2023-02-20T20:35:23.623Z,98498.94
2023-02-20T20:38:28.265Z,98497.50
2023-02-20T20:41:43.966Z,98499.38
2023-02-20T20:44:47.856Z,98494.09
2023-02-20T20:47:50.974Z,98498.66
2023-02-20T20:50:54.319Z,98491.34
2023-02-20T20:53:58.765Z,98488.97
2023-02-20T20:57:01.901Z,98495.50
2023-02-20T21:00:07.448Z,98483.91
2023-02-20T21:03:11.140Z,98423.50
2023-02-20T21:06:15.140Z,98475.56
2023-02-20T21:09:19.638Z,98475.34
2023-02-20T21:12:22.732Z,98465.31
2023-02-20T21:15:27.333Z,98465.22
2023-02-20T21:18:30.567Z,98448.66
2023-02-20T21:21:34.026Z,98444.59
2023-02-20T21:24:38.966Z,98438.91
2023-02-20T21:27:42.037Z,98451.53
2023-02-20T21:30:45.636Z,98450.41
2023-02-20T21:33:50.652Z,98446.47
2023-02-20T21:36:54.306Z,98443.31
2023-02-20T21:39:58.807Z,98442.00
2023-02-20T21:43:19.429Z,98447.91
2023-02-20T21:46:22.539Z,98442.56
2023-02-20T21:49:26.622Z,98444.50
2023-02-20T21:52:36.157Z,98434.63
2023-02-20T21:55:41.806Z,98431.78
2023-02-20T21:59:04.338Z,98432.16
2023-02-20T22:02:08.413Z,98422.97
2023-02-20T22:05:10.849Z,98431.97
2023-02-20T22:08:31.489Z,98437.13
2023-02-20T22:11:53.863Z,98438.81
2023-02-20T22:15:14.362Z,98432.59
2023-02-20T22:18:35.088Z,98430.66
2023-02-20T22:21:55.555Z,98430.81
2023-02-20T22:25:16.284Z,98435.72
2023-02-20T22:28:38.913Z,98439.69
2023-02-20T22:34:56.721Z,98446.63
2023-02-20T22:38:22.899Z,98452.22
2023-02-20T22:41:43.399Z,98313.31
2023-02-20T22:45:04.018Z,98454.06
2023-02-20T22:48:24.613Z,98464.69
2023-02-20T22:51:47.012Z,98465.19
2023-02-20T22:55:08.588Z,98465.47
2023-02-20T22:58:29.449Z,98458.16
2023-02-20T23:01:50.162Z,98464.44
2023-02-20T23:05:10.769Z,98465.22
2023-02-20T23:08:32.703Z,98467.00
2023-02-20T23:11:55.228Z,98453.28
2023-02-20T23:15:16.232Z,98458.31
2023-02-20T23:18:36.856Z,98463.38
2023-02-20T23:22:02.961Z,98460.81
2023-02-20T23:25:25.130Z,98463.84
2023-02-20T23:28:45.872Z,98472.09
2023-02-20T23:32:06.617Z,98468.69
2023-02-20T23:35:31.918Z,98477.56
2023-02-20T23:38:52.559Z,98489.59
2023-02-20T23:42:14.385Z,98481.88
2023-02-20T23:45:35.667Z,98479.81
2023-02-20T23:48:56.757Z,98489.09
2023-02-20T23:52:17.346Z,98491.97
2023-02-20T23:55:38.023Z,98484.81
2023-02-20T23:58:59.898Z,98489.56
